sensor_id;sensor_type;location;lat;lon;timestamp;P1;durP1;ratioP1;P2;durP2;ratioP2
69757;SDS011;57027;51.044;5.774;2022-10-10T00:01:16;5.75;;;3.10;;
69757;SDS011;57027;51.044;5.774;2022-10-10T00:03:42;8.80;;;3.55;;
69757;SDS011;57027;51.044;5.774;2022-10-10T00:06:08;9.00;;;3.83;;
69757;SDS011;57027;51.044;5.774;2022-10-10T00:08:34;10.23;;;4.20;;
69757;SDS011;57027;51.044;5.774;2022-10-10T00:10:59;7.67;;;3.33;;
69757;SDS011;57027;51.044;5.774;2022-10-10T00:13:25;5.93;;;2.78;;
69757;SDS011;57027;51.044;5.774;2022-10-10T00:15:50;5.53;;;3.35;;
69757;SDS011;57027;51.044;5.774;2022-10-10T00:18:15;5.37;;;3.50;;
69757;SDS011;57027;51.044;5.774;2022-10-10T00:20:41;6.60;;;3.13;;
69757;SDS011;57027;51.044;5.774;2022-10-10T00:23:06;6.87;;;2.97;;
69757;SDS011;57027;51.044;5.774;2022-10-10T00:25:32;8.33;;;3.40;;
69757;SDS011;57027;51.044;5.774;2022-10-10T00:28:00;8.68;;;3.33;;
69757;SDS011;57027;51.044;5.774;2022-10-10T00:30:26;9.70;;;3.55;;
69757;SDS011;57027;51.044;5.774;2022-10-10T00:32:53;6.90;;;3.50;;
69757;SDS011;57027;51.044;5.774;2022-10-10T00:35:18;7.05;;;3.42;;
69757;SDS011;57027;51.044;5.774;2022-10-10T00:37:44;10.43;;;3.90;;
69757;SDS011;57027;51.044;5.774;2022-10-10T00:40:09;8.77;;;3.70;;
69757;SDS011;57027;51.044;5.774;2022-10-10T00:42:35;6.35;;;3.65;;
69757;SDS011;57027;51.044;5.774;2022-10-10T00:47:54;7.20;;;3.63;;
69757;SDS011;57027;51.044;5.774;2022-10-10T00:50:22;7.55;;;3.67;;
69757;SDS011;57027;51.044;5.774;2022-10-10T00:52:48;8.93;;;4.10;;
69757;SDS011;57027;51.044;5.774;2022-10-10T00:55:14;10.50;;;3.70;;
69757;SDS011;57027;51.044;5.774;2022-10-10T00:57:41;7.55;;;3.47;;
69757;SDS011;57027;51.044;5.774;2022-10-10T01:00:07;6.82;;;3.75;;
69757;SDS011;57027;51.044;5.774;2022-10-10T01:02:33;5.75;;;3.60;;
69757;SDS011;57027;51.044;5.774;2022-10-10T01:04:58;10.70;;;3.73;;
69757;SDS011;57027;51.044;5.774;2022-10-10T01:07:27;8.52;;;3.33;;
69757;SDS011;57027;51.044;5.774;2022-10-10T01:09:56;9.17;;;3.57;;
69757;SDS011;57027;51.044;5.774;2022-10-10T01:12:26;6.75;;;3.80;;
69757;SDS011;57027;51.044;5.774;2022-10-10T01:17:29;7.20;;;3.05;;
69757;SDS011;57027;51.044;5.774;2022-10-10T01:25:20;7.17;;;3.43;;
69757;SDS011;57027;51.044;5.774;2022-10-10T01:27:52;9.00;;;4.00;;
69757;SDS011;57027;51.044;5.774;2022-10-10T01:30:23;7.35;;;3.33;;
69757;SDS011;57027;51.044;5.774;2022-10-10T01:32:54;6.60;;;3.30;;
69757;SDS011;57027;51.044;5.774;2022-10-10T01:35:38;5.65;;;3.28;;
69757;SDS011;57027;51.044;5.774;2022-10-10T01:38:18;6.70;;;3.40;;
69757;SDS011;57027;51.044;5.774;2022-10-10T01:40:49;5.03;;;3.22;;
69757;SDS011;57027;51.044;5.774;2022-10-10T01:43:21;5.90;;;3.30;;
69757;SDS011;57027;51.044;5.774;2022-10-10T01:45:49;5.53;;;3.00;;
69757;SDS011;57027;51.044;5.774;2022-10-10T01:48:17;6.13;;;3.00;;
69757;SDS011;57027;51.044;5.774;2022-10-10T01:53:31;6.50;;;3.08;;
69757;SDS011;57027;51.044;5.774;2022-10-10T01:56:12;7.07;;;3.17;;
69757;SDS011;57027;51.044;5.774;2022-10-10T02:01:53;6.07;;;3.25;;
69757;SDS011;57027;51.044;5.774;2022-10-10T02:06:54;5.43;;;2.97;;
69757;SDS011;57027;51.044;5.774;2022-10-10T02:09:27;5.93;;;3.20;;
69757;SDS011;57027;51.044;5.774;2022-10-10T02:11:59;8.00;;;3.42;;
69757;SDS011;57027;51.044;5.774;2022-10-10T02:14:30;6.93;;;3.65;;
69757;SDS011;57027;51.044;5.774;2022-10-10T02:17:00;11.32;;;3.55;;
69757;SDS011;57027;51.044;5.774;2022-10-10T02:19:28;6.75;;;3.15;;
69757;SDS011;57027;51.044;5.774;2022-10-10T02:21:54;8.82;;;3.38;;
69757;SDS011;57027;51.044;5.774;2022-10-10T02:24:21;6.63;;;3.25;;
69757;SDS011;57027;51.044;5.774;2022-10-10T02:26:51;8.00;;;3.63;;
69757;SDS011;57027;51.044;5.774;2022-10-10T02:29:26;8.00;;;3.27;;
69757;SDS011;57027;51.044;5.774;2022-10-10T02:31:59;5.70;;;3.05;;
69757;SDS011;57027;51.044;5.774;2022-10-10T02:34:33;5.72;;;3.10;;
69757;SDS011;57027;51.044;5.774;2022-10-10T02:37:03;6.25;;;3.20;;
69757;SDS011;57027;51.044;5.774;2022-10-10T02:39:33;6.43;;;3.45;;
69757;SDS011;57027;51.044;5.774;2022-10-10T02:42:03;6.07;;;3.33;;
69757;SDS011;57027;51.044;5.774;2022-10-10T02:44:31;6.50;;;3.40;;
69757;SDS011;57027;51.044;5.774;2022-10-10T02:46:57;6.70;;;3.47;;
69757;SDS011;57027;51.044;5.774;2022-10-10T02:49:23;6.20;;;3.20;;
69757;SDS011;57027;51.044;5.774;2022-10-10T02:51:50;7.55;;;3.33;;
69757;SDS011;57027;51.044;5.774;2022-10-10T02:54:16;5.63;;;3.50;;
69757;SDS011;57027;51.044;5.774;2022-10-10T02:56:41;6.93;;;3.90;;
69757;SDS011;57027;51.044;5.774;2022-10-10T02:59:07;9.43;;;3.50;;
69757;SDS011;57027;51.044;5.774;2022-10-10T03:01:32;7.10;;;3.72;;
69757;SDS011;57027;51.044;5.774;2022-10-10T03:03:57;7.33;;;3.73;;
69757;SDS011;57027;51.044;5.774;2022-10-10T03:06:22;7.17;;;3.73;;
69757;SDS011;57027;51.044;5.774;2022-10-10T03:08:49;6.20;;;3.45;;
69757;SDS011;57027;51.044;5.774;2022-10-10T03:11:15;6.73;;;3.80;;
69757;SDS011;57027;51.044;5.774;2022-10-10T03:13:40;7.60;;;4.20;;
69757;SDS011;57027;51.044;5.774;2022-10-10T03:16:05;10.37;;;4.00;;
69757;SDS011;57027;51.044;5.774;2022-10-10T03:18:31;7.70;;;3.47;;
69757;SDS011;57027;51.044;5.774;2022-10-10T03:20:56;8.77;;;4.05;;
69757;SDS011;57027;51.044;5.774;2022-10-10T03:23:23;6.30;;;3.40;;
69757;SDS011;57027;51.044;5.774;2022-10-10T03:25:50;6.30;;;3.88;;
69757;SDS011;57027;51.044;5.774;2022-10-10T03:28:15;8.85;;;4.28;;
69757;SDS011;57027;51.044;5.774;2022-10-10T03:30:41;7.23;;;3.90;;
69757;SDS011;57027;51.044;5.774;2022-10-10T03:33:06;7.53;;;3.73;;
69757;SDS011;57027;51.044;5.774;2022-10-10T03:35:32;8.55;;;4.00;;
69757;SDS011;57027;51.044;5.774;2022-10-10T03:37:58;8.43;;;4.07;;
69757;SDS011;57027;51.044;5.774;2022-10-10T03:40:24;8.95;;;3.90;;
69757;SDS011;57027;51.044;5.774;2022-10-10T03:42:51;7.60;;;3.97;;
69757;SDS011;57027;51.044;5.774;2022-10-10T03:45:16;9.70;;;4.20;;
69757;SDS011;57027;51.044;5.774;2022-10-10T03:47:42;9.93;;;3.75;;
69757;SDS011;57027;51.044;5.774;2022-10-10T03:50:07;11.30;;;4.53;;
69757;SDS011;57027;51.044;5.774;2022-10-10T03:52:33;9.75;;;4.22;;
69757;SDS011;57027;51.044;5.774;2022-10-10T03:54:59;8.83;;;4.30;;
69757;SDS011;57027;51.044;5.774;2022-10-10T03:57:24;9.60;;;4.47;;
69757;SDS011;57027;51.044;5.774;2022-10-10T03:59:49;8.83;;;4.13;;
69757;SDS011;57027;51.044;5.774;2022-10-10T04:02:15;8.13;;;4.27;;
69757;SDS011;57027;51.044;5.774;2022-10-10T04:04:40;10.03;;;4.13;;
69757;SDS011;57027;51.044;5.774;2022-10-10T04:07:05;13.67;;;4.20;;
69757;SDS011;57027;51.044;5.774;2022-10-10T04:09:31;11.07;;;4.53;;
69757;SDS011;57027;51.044;5.774;2022-10-10T04:11:56;10.33;;;4.43;;
69757;SDS011;57027;51.044;5.774;2022-10-10T04:14:21;13.43;;;4.60;;
69757;SDS011;57027;51.044;5.774;2022-10-10T04:16:47;9.70;;;4.60;;
69757;SDS011;57027;51.044;5.774;2022-10-10T04:19:12;9.60;;;4.57;;
69757;SDS011;57027;51.044;5.774;2022-10-10T04:21:38;14.77;;;4.60;;
69757;SDS011;57027;51.044;5.774;2022-10-10T04:24:03;9.23;;;4.43;;
69757;SDS011;57027;51.044;5.774;2022-10-10T04:26:29;9.75;;;4.60;;
69757;SDS011;57027;51.044;5.774;2022-10-10T04:28:54;10.80;;;4.65;;
69757;SDS011;57027;51.044;5.774;2022-10-10T04:31:19;10.77;;;3.97;;
69757;SDS011;57027;51.044;5.774;2022-10-10T04:33:45;11.23;;;4.27;;
69757;SDS011;57027;51.044;5.774;2022-10-10T04:36:10;9.17;;;4.37;;
69757;SDS011;57027;51.044;5.774;2022-10-10T04:38:36;8.17;;;4.10;;
69757;SDS011;57027;51.044;5.774;2022-10-10T04:41:01;7.87;;;4.00;;
69757;SDS011;57027;51.044;5.774;2022-10-10T04:43:27;9.70;;;3.80;;
69757;SDS011;57027;51.044;5.774;2022-10-10T04:45:54;9.67;;;3.90;;
69757;SDS011;57027;51.044;5.774;2022-10-10T04:48:21;9.05;;;4.03;;
69757;SDS011;57027;51.044;5.774;2022-10-10T04:50:50;7.77;;;3.60;;
69757;SDS011;57027;51.044;5.774;2022-10-10T04:53:16;7.75;;;3.95;;
69757;SDS011;57027;51.044;5.774;2022-10-10T04:55:42;7.20;;;4.00;;
69757;SDS011;57027;51.044;5.774;2022-10-10T04:58:07;7.80;;;3.45;;
69757;SDS011;57027;51.044;5.774;2022-10-10T05:00:33;5.87;;;3.03;;
69757;SDS011;57027;51.044;5.774;2022-10-10T05:02:58;12.53;;;3.70;;
69757;SDS011;57027;51.044;5.774;2022-10-10T05:05:23;7.20;;;3.47;;
69757;SDS011;57027;51.044;5.774;2022-10-10T05:07:49;8.93;;;3.50;;
69757;SDS011;57027;51.044;5.774;2022-10-10T05:10:14;6.80;;;3.67;;
69757;SDS011;57027;51.044;5.774;2022-10-10T05:12:40;10.47;;;4.07;;
69757;SDS011;57027;51.044;5.774;2022-10-10T05:15:05;7.67;;;3.57;;
69757;SDS011;57027;51.044;5.774;2022-10-10T05:17:31;9.70;;;3.97;;
69757;SDS011;57027;51.044;5.774;2022-10-10T05:19:56;9.10;;;4.10;;
69757;SDS011;57027;51.044;5.774;2022-10-10T05:22:22;8.10;;;4.33;;
69757;SDS011;57027;51.044;5.774;2022-10-10T05:24:47;10.63;;;4.70;;
69757;SDS011;57027;51.044;5.774;2022-10-10T05:27:12;10.60;;;4.57;;
69757;SDS011;57027;51.044;5.774;2022-10-10T05:29:38;7.67;;;4.40;;
69757;SDS011;57027;51.044;5.774;2022-10-10T05:32:03;8.32;;;4.78;;
69757;SDS011;57027;51.044;5.774;2022-10-10T05:34:28;10.17;;;5.00;;
69757;SDS011;57027;51.044;5.774;2022-10-10T05:36:54;8.40;;;4.30;;
69757;SDS011;57027;51.044;5.774;2022-10-10T05:39:20;9.90;;;4.43;;
69757;SDS011;57027;51.044;5.774;2022-10-10T05:41:46;10.60;;;4.00;;
69757;SDS011;57027;51.044;5.774;2022-10-10T05:44:11;10.13;;;4.43;;
69757;SDS011;57027;51.044;5.774;2022-10-10T05:46:37;8.70;;;3.90;;
69757;SDS011;57027;51.044;5.774;2022-10-10T05:49:02;6.88;;;4.07;;
69757;SDS011;57027;51.044;5.774;2022-10-10T05:51:27;11.98;;;3.78;;
69757;SDS011;57027;51.044;5.774;2022-10-10T05:53:53;17.73;;;4.10;;
69757;SDS011;57027;51.044;5.774;2022-10-10T05:56:19;8.85;;;3.90;;
69757;SDS011;57027;51.044;5.774;2022-10-10T05:58:44;9.43;;;4.32;;
69757;SDS011;57027;51.044;5.774;2022-10-10T06:01:09;11.17;;;4.53;;
69757;SDS011;57027;51.044;5.774;2022-10-10T06:03:35;9.53;;;4.17;;
69757;SDS011;57027;51.044;5.774;2022-10-10T06:06:01;11.50;;;4.50;;
69757;SDS011;57027;51.044;5.774;2022-10-10T06:08:26;9.87;;;4.30;;
69757;SDS011;57027;51.044;5.774;2022-10-10T06:10:52;6.63;;;3.67;;
69757;SDS011;57027;51.044;5.774;2022-10-10T06:13:18;7.80;;;4.13;;
69757;SDS011;57027;51.044;5.774;2022-10-10T06:15:44;8.63;;;3.85;;
69757;SDS011;57027;51.044;5.774;2022-10-10T06:18:10;10.90;;;4.00;;
69757;SDS011;57027;51.044;5.774;2022-10-10T06:20:36;10.18;;;4.28;;
69757;SDS011;57027;51.044;5.774;2022-10-10T06:23:03;10.80;;;4.20;;
69757;SDS011;57027;51.044;5.774;2022-10-10T06:25:29;10.95;;;4.40;;
69757;SDS011;57027;51.044;5.774;2022-10-10T06:27:54;12.60;;;4.57;;
69757;SDS011;57027;51.044;5.774;2022-10-10T06:30:20;10.63;;;4.18;;
69757;SDS011;57027;51.044;5.774;2022-10-10T06:32:46;10.00;;;4.30;;
69757;SDS011;57027;51.044;5.774;2022-10-10T06:35:11;11.83;;;4.50;;
69757;SDS011;57027;51.044;5.774;2022-10-10T06:37:36;11.40;;;4.73;;
69757;SDS011;57027;51.044;5.774;2022-10-10T06:40:02;11.23;;;4.27;;
69757;SDS011;57027;51.044;5.774;2022-10-10T06:42:27;10.88;;;3.90;;
69757;SDS011;57027;51.044;5.774;2022-10-10T06:44:53;13.47;;;4.90;;
69757;SDS011;57027;51.044;5.774;2022-10-10T06:47:18;10.77;;;4.30;;
69757;SDS011;57027;51.044;5.774;2022-10-10T06:49:45;7.73;;;3.70;;
69757;SDS011;57027;51.044;5.774;2022-10-10T06:52:10;9.20;;;3.67;;
69757;SDS011;57027;51.044;5.774;2022-10-10T06:54:35;10.57;;;3.40;;
69757;SDS011;57027;51.044;5.774;2022-10-10T06:57:01;9.63;;;3.70;;
69757;SDS011;57027;51.044;5.774;2022-10-10T06:59:26;10.37;;;3.60;;
69757;SDS011;57027;51.044;5.774;2022-10-10T07:01:51;9.43;;;3.33;;
69757;SDS011;57027;51.044;5.774;2022-10-10T07:04:17;7.13;;;2.97;;
69757;SDS011;57027;51.044;5.774;2022-10-10T07:06:42;11.60;;;3.20;;
69757;SDS011;57027;51.044;5.774;2022-10-10T07:09:07;9.70;;;3.57;;
69757;SDS011;57027;51.044;5.774;2022-10-10T07:11:33;5.53;;;3.17;;
69757;SDS011;57027;51.044;5.774;2022-10-10T07:13:59;8.10;;;3.53;;
69757;SDS011;57027;51.044;5.774;2022-10-10T07:16:25;5.70;;;2.93;;
69757;SDS011;57027;51.044;5.774;2022-10-10T07:18:50;13.10;;;3.30;;
69757;SDS011;57027;51.044;5.774;2022-10-10T07:21:15;8.10;;;3.53;;
69757;SDS011;57027;51.044;5.774;2022-10-10T07:23:41;9.13;;;3.17;;
69757;SDS011;57027;51.044;5.774;2022-10-10T07:26:07;10.47;;;3.47;;
69757;SDS011;57027;51.044;5.774;2022-10-10T07:28:35;13.43;;;3.10;;
69757;SDS011;57027;51.044;5.774;2022-10-10T07:31:05;8.10;;;2.90;;
69757;SDS011;57027;51.044;5.774;2022-10-10T07:33:33;14.83;;;3.57;;
69757;SDS011;57027;51.044;5.774;2022-10-10T07:36:01;17.83;;;3.55;;
69757;SDS011;57027;51.044;5.774;2022-10-10T07:38:26;13.00;;;3.75;;
69757;SDS011;57027;51.044;5.774;2022-10-10T07:40:52;15.45;;;4.18;;
69757;SDS011;57027;51.044;5.774;2022-10-10T07:43:17;12.60;;;3.93;;
69757;SDS011;57027;51.044;5.774;2022-10-10T07:45:43;22.03;;;4.60;;
69757;SDS011;57027;51.044;5.774;2022-10-10T07:48:08;11.40;;;3.93;;
69757;SDS011;57027;51.044;5.774;2022-10-10T07:50:34;13.60;;;3.85;;
69757;SDS011;57027;51.044;5.774;2022-10-10T07:52:59;15.97;;;4.60;;
69757;SDS011;57027;51.044;5.774;2022-10-10T07:55:24;11.20;;;4.47;;
69757;SDS011;57027;51.044;5.774;2022-10-10T07:57:50;12.00;;;3.80;;
69757;SDS011;57027;51.044;5.774;2022-10-10T08:00:16;15.93;;;4.40;;
69757;SDS011;57027;51.044;5.774;2022-10-10T08:02:42;22.17;;;4.88;;
69757;SDS011;57027;51.044;5.774;2022-10-10T08:05:07;10.10;;;4.10;;
69757;SDS011;57027;51.044;5.774;2022-10-10T08:07:33;9.83;;;4.10;;
69757;SDS011;57027;51.044;5.774;2022-10-10T08:09:59;12.90;;;4.53;;
69757;SDS011;57027;51.044;5.774;2022-10-10T08:12:26;13.60;;;3.97;;
69757;SDS011;57027;51.044;5.774;2022-10-10T08:14:51;12.00;;;4.30;;
69757;SDS011;57027;51.044;5.774;2022-10-10T08:17:17;10.40;;;4.30;;
69757;SDS011;57027;51.044;5.774;2022-10-10T08:19:42;18.93;;;4.37;;
69757;SDS011;57027;51.044;5.774;2022-10-10T08:22:07;13.10;;;4.50;;
69757;SDS011;57027;51.044;5.774;2022-10-10T08:24:33;13.02;;;3.70;;
69757;SDS011;57027;51.044;5.774;2022-10-10T08:26:58;14.07;;;4.30;;
69757;SDS011;57027;51.044;5.774;2022-10-10T08:29:23;14.97;;;4.37;;
69757;SDS011;57027;51.044;5.774;2022-10-10T08:31:49;11.20;;;4.10;;
69757;SDS011;57027;51.044;5.774;2022-10-10T08:34:14;10.17;;;3.77;;
69757;SDS011;57027;51.044;5.774;2022-10-10T08:36:40;9.60;;;4.00;;
69757;SDS011;57027;51.044;5.774;2022-10-10T08:39:05;14.10;;;3.70;;
69757;SDS011;57027;51.044;5.774;2022-10-10T08:44:50;10.20;;;3.35;;
69757;SDS011;57027;51.044;5.774;2022-10-10T08:47:21;9.38;;;3.75;;
69757;SDS011;57027;51.044;5.774;2022-10-10T08:49:56;8.90;;;3.30;;
69757;SDS011;57027;51.044;5.774;2022-10-10T08:52:31;9.60;;;3.20;;
69757;SDS011;57027;51.044;5.774;2022-10-10T08:55:03;10.75;;;3.35;;
69757;SDS011;57027;51.044;5.774;2022-10-10T09:00:46;7.97;;;2.70;;
69757;SDS011;57027;51.044;5.774;2022-10-10T09:03:27;10.90;;;2.80;;
69757;SDS011;57027;51.044;5.774;2022-10-10T09:06:11;9.87;;;2.83;;
69757;SDS011;57027;51.044;5.774;2022-10-10T09:16:52;6.72;;;2.28;;
69757;SDS011;57027;51.044;5.774;2022-10-10T09:22:19;6.38;;;2.40;;
69757;SDS011;57027;51.044;5.774;2022-10-10T09:25:00;7.28;;;2.13;;
69757;SDS011;57027;51.044;5.774;2022-10-10T09:27:30;4.97;;;2.38;;
69757;SDS011;57027;51.044;5.774;2022-10-10T09:30:02;8.20;;;2.30;;
69757;SDS011;57027;51.044;5.774;2022-10-10T09:32:36;8.53;;;2.40;;
69757;SDS011;57027;51.044;5.774;2022-10-10T09:37:39;8.57;;;2.42;;
69757;SDS011;57027;51.044;5.774;2022-10-10T09:42:54;8.40;;;2.47;;
69757;SDS011;57027;51.044;5.774;2022-10-10T09:45:26;3.73;;;2.10;;
69757;SDS011;57027;51.044;5.774;2022-10-10T09:47:54;9.60;;;2.30;;
69757;SDS011;57027;51.044;5.774;2022-10-10T09:50:20;8.67;;;2.47;;
69757;SDS011;57027;51.044;5.774;2022-10-10T09:52:46;7.53;;;2.20;;
69757;SDS011;57027;51.044;5.774;2022-10-10T09:57:46;8.90;;;2.10;;
69757;SDS011;57027;51.044;5.774;2022-10-10T10:00:23;8.02;;;2.47;;
69757;SDS011;57027;51.044;5.774;2022-10-10T10:05:33;9.38;;;2.00;;
69757;SDS011;57027;51.044;5.774;2022-10-10T10:07:59;9.68;;;2.53;;
69757;SDS011;57027;51.044;5.774;2022-10-10T10:10:25;6.23;;;2.10;;
69757;SDS011;57027;51.044;5.774;2022-10-10T10:12:51;8.82;;;2.50;;
69757;SDS011;57027;51.044;5.774;2022-10-10T10:21:10;6.33;;;1.97;;
69757;SDS011;57027;51.044;5.774;2022-10-10T10:23:40;11.20;;;2.25;;
69757;SDS011;57027;51.044;5.774;2022-10-10T10:26:15;8.98;;;2.58;;
69757;SDS011;57027;51.044;5.774;2022-10-10T10:28:46;4.40;;;2.10;;
69757;SDS011;57027;51.044;5.774;2022-10-10T10:32:01;15.18;;;2.10;;
69757;SDS011;57027;51.044;5.774;2022-10-10T10:42:29;8.45;;;1.98;;
69757;SDS011;57027;51.044;5.774;2022-10-10T10:50:48;3.83;;;1.75;;
69757;SDS011;57027;51.044;5.774;2022-10-10T10:53:24;15.50;;;2.83;;
69757;SDS011;57027;51.044;5.774;2022-10-10T11:07:02;7.13;;;1.80;;
69757;SDS011;57027;51.044;5.774;2022-10-10T11:09:40;5.95;;;1.85;;
69757;SDS011;57027;51.044;5.774;2022-10-10T11:15:05;9.00;;;1.90;;
69757;SDS011;57027;51.044;5.774;2022-10-10T11:17:38;9.68;;;1.90;;
69757;SDS011;57027;51.044;5.774;2022-10-10T11:28:16;7.90;;;1.87;;
69757;SDS011;57027;51.044;5.774;2022-10-10T11:31:04;7.45;;;1.83;;
69757;SDS011;57027;51.044;5.774;2022-10-10T11:33:36;8.43;;;2.20;;
69757;SDS011;57027;51.044;5.774;2022-10-10T11:36:05;8.07;;;1.60;;
69757;SDS011;57027;51.044;5.774;2022-10-10T11:38:52;16.17;;;3.00;;
69757;SDS011;57027;51.044;5.774;2022-10-10T11:41:22;7.27;;;1.70;;
69757;SDS011;57027;51.044;5.774;2022-10-10T11:46:42;7.78;;;2.35;;
69757;SDS011;57027;51.044;5.774;2022-10-10T11:49:37;10.95;;;2.22;;
69757;SDS011;57027;51.044;5.774;2022-10-10T11:52:19;7.35;;;1.95;;
69757;SDS011;57027;51.044;5.774;2022-10-10T11:57:27;6.35;;;1.83;;
69757;SDS011;57027;51.044;5.774;2022-10-10T11:59:59;7.93;;;1.83;;
69757;SDS011;57027;51.044;5.774;2022-10-10T12:02:35;8.05;;;2.28;;
69757;SDS011;57027;51.044;5.774;2022-10-10T12:05:04;9.90;;;2.83;;
69757;SDS011;57027;51.044;5.774;2022-10-10T12:07:56;7.10;;;2.10;;
69757;SDS011;57027;51.044;5.774;2022-10-10T12:10:22;12.75;;;2.13;;
69757;SDS011;57027;51.044;5.774;2022-10-10T12:12:56;9.68;;;1.98;;
69757;SDS011;57027;51.044;5.774;2022-10-10T12:15:28;10.57;;;2.60;;
69757;SDS011;57027;51.044;5.774;2022-10-10T12:17:57;7.80;;;1.95;;
69757;SDS011;57027;51.044;5.774;2022-10-10T12:30:40;11.23;;;2.35;;
69757;SDS011;57027;51.044;5.774;2022-10-10T12:35:57;9.38;;;3.05;;
69757;SDS011;57027;51.044;5.774;2022-10-10T12:46:47;7.50;;;1.98;;
69757;SDS011;57027;51.044;5.774;2022-10-10T12:49:37;12.00;;;2.47;;
69757;SDS011;57027;51.044;5.774;2022-10-10T12:55:23;11.50;;;2.53;;
69757;SDS011;57027;51.044;5.774;2022-10-10T12:57:53;11.70;;;2.83;;
69757;SDS011;57027;51.044;5.774;2022-10-10T13:00:22;9.52;;;2.30;;
69757;SDS011;57027;51.044;5.774;2022-10-10T13:02:58;13.50;;;2.55;;
69757;SDS011;57027;51.044;5.774;2022-10-10T13:05:27;6.80;;;1.90;;
69757;SDS011;57027;51.044;5.774;2022-10-10T13:07:58;9.45;;;2.10;;
69757;SDS011;57027;51.044;5.774;2022-10-10T13:10:26;12.85;;;2.50;;
69757;SDS011;57027;51.044;5.774;2022-10-10T13:15:27;5.63;;;1.95;;
69757;SDS011;57027;51.044;5.774;2022-10-10T13:17:53;7.63;;;2.13;;
69757;SDS011;57027;51.044;5.774;2022-10-10T13:22:50;16.47;;;2.30;;
69757;SDS011;57027;51.044;5.774;2022-10-10T13:25:15;9.30;;;1.98;;
69757;SDS011;57027;51.044;5.774;2022-10-10T13:27:42;8.90;;;1.93;;
69757;SDS011;57027;51.044;5.774;2022-10-10T13:30:14;7.82;;;1.83;;
69757;SDS011;57027;51.044;5.774;2022-10-10T13:32:43;5.82;;;1.77;;
69757;SDS011;57027;51.044;5.774;2022-10-10T13:35:15;11.47;;;2.00;;
69757;SDS011;57027;51.044;5.774;2022-10-10T13:37:43;8.20;;;1.80;;
69757;SDS011;57027;51.044;5.774;2022-10-10T13:40:15;8.65;;;1.90;;
69757;SDS011;57027;51.044;5.774;2022-10-10T13:42:41;9.65;;;2.10;;
69757;SDS011;57027;51.044;5.774;2022-10-10T13:50:35;7.40;;;1.88;;
69757;SDS011;57027;51.044;5.774;2022-10-10T13:56:04;13.23;;;2.70;;
69757;SDS011;57027;51.044;5.774;2022-10-10T14:03:48;10.02;;;1.90;;
69757;SDS011;57027;51.044;5.774;2022-10-10T14:06:22;10.75;;;1.63;;
69757;SDS011;57027;51.044;5.774;2022-10-10T14:08:49;5.85;;;1.70;;
69757;SDS011;57027;51.044;5.774;2022-10-10T14:11:18;11.23;;;3.23;;
69757;SDS011;57027;51.044;5.774;2022-10-10T14:13:49;9.18;;;2.20;;
69757;SDS011;57027;51.044;5.774;2022-10-10T14:18:43;14.03;;;3.13;;
69757;SDS011;57027;51.044;5.774;2022-10-10T14:21:09;14.65;;;3.17;;
69757;SDS011;57027;51.044;5.774;2022-10-10T14:23:36;7.67;;;2.20;;
69757;SDS011;57027;51.044;5.774;2022-10-10T14:26:02;9.67;;;2.80;;
69757;SDS011;57027;51.044;5.774;2022-10-10T14:28:29;8.73;;;2.55;;
69757;SDS011;57027;51.044;5.774;2022-10-10T14:30:58;8.77;;;2.47;;
69757;SDS011;57027;51.044;5.774;2022-10-10T14:33:25;7.55;;;2.20;;
69757;SDS011;57027;51.044;5.774;2022-10-10T14:35:51;9.77;;;2.33;;
69757;SDS011;57027;51.044;5.774;2022-10-10T14:38:18;8.77;;;2.60;;
69757;SDS011;57027;51.044;5.774;2022-10-10T14:40:45;5.35;;;2.45;;
69757;SDS011;57027;51.044;5.774;2022-10-10T14:43:11;8.75;;;2.40;;
69757;SDS011;57027;51.044;5.774;2022-10-10T14:45:37;10.03;;;2.60;;
69757;SDS011;57027;51.044;5.774;2022-10-10T14:48:03;6.90;;;2.28;;
69757;SDS011;57027;51.044;5.774;2022-10-10T14:50:33;8.57;;;2.60;;
69757;SDS011;57027;51.044;5.774;2022-10-10T14:52:59;11.70;;;2.35;;
69757;SDS011;57027;51.044;5.774;2022-10-10T14:55:26;6.38;;;2.10;;
69757;SDS011;57027;51.044;5.774;2022-10-10T14:57:51;10.03;;;2.53;;
69757;SDS011;57027;51.044;5.774;2022-10-10T15:00:18;7.93;;;2.23;;
69757;SDS011;57027;51.044;5.774;2022-10-10T15:02:46;10.20;;;2.45;;
69757;SDS011;57027;51.044;5.774;2022-10-10T15:05:11;5.57;;;1.90;;
69757;SDS011;57027;51.044;5.774;2022-10-10T15:07:38;8.88;;;2.22;;
69757;SDS011;57027;51.044;5.774;2022-10-10T15:10:04;12.82;;;2.55;;
69757;SDS011;57027;51.044;5.774;2022-10-10T15:12:30;8.07;;;2.27;;
69757;SDS011;57027;51.044;5.774;2022-10-10T15:14:56;7.13;;;2.00;;
69757;SDS011;57027;51.044;5.774;2022-10-10T15:17:21;9.00;;;2.23;;
69757;SDS011;57027;51.044;5.774;2022-10-10T15:19:49;11.75;;;2.25;;
69757;SDS011;57027;51.044;5.774;2022-10-10T15:22:16;7.50;;;2.53;;
69757;SDS011;57027;51.044;5.774;2022-10-10T15:24:41;6.13;;;2.20;;
69757;SDS011;57027;51.044;5.774;2022-10-10T15:27:07;7.53;;;2.58;;
69757;SDS011;57027;51.044;5.774;2022-10-10T15:29:32;6.50;;;2.53;;
69757;SDS011;57027;51.044;5.774;2022-10-10T15:31:58;6.60;;;2.40;;
69757;SDS011;57027;51.044;5.774;2022-10-10T15:34:24;9.40;;;2.50;;
69757;SDS011;57027;51.044;5.774;2022-10-10T15:36:49;6.60;;;2.70;;
69757;SDS011;57027;51.044;5.774;2022-10-10T15:39:15;11.33;;;3.50;;
69757;SDS011;57027;51.044;5.774;2022-10-10T15:41:40;9.82;;;3.70;;
69757;SDS011;57027;51.044;5.774;2022-10-10T15:44:10;10.47;;;4.30;;
69757;SDS011;57027;51.044;5.774;2022-10-10T15:46:38;11.20;;;4.28;;
69757;SDS011;57027;51.044;5.774;2022-10-10T15:49:03;9.60;;;4.20;;
69757;SDS011;57027;51.044;5.774;2022-10-10T15:51:29;14.00;;;5.10;;
69757;SDS011;57027;51.044;5.774;2022-10-10T15:53:55;11.90;;;4.70;;
69757;SDS011;57027;51.044;5.774;2022-10-10T15:56:24;10.52;;;4.38;;
69757;SDS011;57027;51.044;5.774;2022-10-10T15:58:57;10.20;;;4.72;;
69757;SDS011;57027;51.044;5.774;2022-10-10T16:01:24;8.20;;;4.13;;
69757;SDS011;57027;51.044;5.774;2022-10-10T16:03:50;8.80;;;3.85;;
69757;SDS011;57027;51.044;5.774;2022-10-10T16:06:16;14.70;;;4.03;;
69757;SDS011;57027;51.044;5.774;2022-10-10T16:08:43;9.27;;;3.90;;
69757;SDS011;57027;51.044;5.774;2022-10-10T16:11:10;11.13;;;3.85;;
69757;SDS011;57027;51.044;5.774;2022-10-10T16:13:37;10.85;;;4.55;;
69757;SDS011;57027;51.044;5.774;2022-10-10T16:16:04;13.10;;;3.20;;
69757;SDS011;57027;51.044;5.774;2022-10-10T16:18:32;8.10;;;3.28;;
69757;SDS011;57027;51.044;5.774;2022-10-10T16:20:59;8.17;;;2.60;;
69757;SDS011;57027;51.044;5.774;2022-10-10T16:23:24;10.18;;;2.90;;
69757;SDS011;57027;51.044;5.774;2022-10-10T16:26:03;11.10;;;3.43;;
69757;SDS011;57027;51.044;5.774;2022-10-10T16:28:34;10.25;;;3.05;;
69757;SDS011;57027;51.044;5.774;2022-10-10T16:31:01;7.13;;;2.80;;
69757;SDS011;57027;51.044;5.774;2022-10-10T16:33:29;5.85;;;2.92;;
69757;SDS011;57027;51.044;5.774;2022-10-10T16:35:56;8.13;;;2.95;;
69757;SDS011;57027;51.044;5.774;2022-10-10T16:38:21;11.33;;;2.90;;
69757;SDS011;57027;51.044;5.774;2022-10-10T16:40:47;7.37;;;2.43;;
69757;SDS011;57027;51.044;5.774;2022-10-10T16:43:12;6.00;;;1.90;;
69757;SDS011;57027;51.044;5.774;2022-10-10T16:45:41;4.97;;;2.20;;
69757;SDS011;57027;51.044;5.774;2022-10-10T16:48:10;5.30;;;1.40;;
69757;SDS011;57027;51.044;5.774;2022-10-10T16:50:39;5.05;;;1.52;;
69757;SDS011;57027;51.044;5.774;2022-10-10T16:53:06;5.22;;;1.80;;
69757;SDS011;57027;51.044;5.774;2022-10-10T16:55:36;6.57;;;1.50;;
69757;SDS011;57027;51.044;5.774;2022-10-10T16:58:03;4.10;;;1.20;;
69757;SDS011;57027;51.044;5.774;2022-10-10T17:00:29;5.38;;;1.63;;
69757;SDS011;57027;51.044;5.774;2022-10-10T17:02:54;5.00;;;1.53;;
69757;SDS011;57027;51.044;5.774;2022-10-10T17:05:19;3.07;;;1.30;;
69757;SDS011;57027;51.044;5.774;2022-10-10T17:07:45;5.83;;;1.50;;